Shannon Hills, Arkansas
Current Conditions -  °F | °C
As of 9:53 AM on Friday 19 Dec 2014 (Local Time) from KLIT Reporting Station
Overcast Overcast  
Wind Chill: 38°   Ceiling: 1100
Heat Index: 43°   Visibility: 7mi
Dew Point: 37°   Wind: 9mph
Humidity: 80%   Direction: 70°ENE
Pressure: 30.29"   Gusts: NA
Location:  34.5918°N, 92.381°W
Report Text: KLIT 191553Z 07008KT 7SM BKN011 OVC020 06/03 A3029 RMK AO2 SLP260 BKN011 V SCT T00610028
Loading
Personal Weather Stations






























Interactive Weather Map New forecast layout! Learn more

10-Day Weather Forecast

Advertisements
Track Severe Weather on mobile